createdAt,value
2023-03-21T00:01:51.555Z,101412.25
2023-03-21T00:04:18.776Z,101408.69
2023-03-21T00:06:46.621Z,101407.00
2023-03-21T00:09:13.756Z,101399.91
2023-03-21T00:11:41.119Z,101400.75
2023-03-21T00:14:09.043Z,101407.00
2023-03-21T00:16:38.046Z,101401.72
2023-03-21T00:19:07.529Z,101398.06
2023-03-21T00:21:55.537Z,101400.03
2023-03-21T00:24:25.532Z,101398.19
2023-03-21T00:26:53.680Z,101397.34
2023-03-21T00:29:21.126Z,101395.63
2023-03-21T00:31:48.446Z,101391.97
2023-03-21T00:34:17.695Z,101389.41
2023-03-21T00:36:50.774Z,101384.91
2023-03-21T00:39:17.941Z,101387.59
2023-03-21T00:41:45.265Z,101382.22
2023-03-21T00:44:16.169Z,101382.22
2023-03-21T00:47:04.456Z,101383.19
2023-03-21T00:49:34.280Z,101376.09
2023-03-21T00:52:17.058Z,101367.97
2023-03-21T00:54:47.701Z,101372.44
2023-03-21T00:57:15.084Z,101365.38
2023-03-21T00:59:42.384Z,101365.38
2023-03-21T01:02:14.950Z,101358.31
2023-03-21T01:04:42.500Z,101357.34
2023-03-21T01:07:10.846Z,101353.81
2023-03-21T01:09:39.033Z,101360.03
2023-03-21T01:12:06.449Z,101352.09
2023-03-21T01:14:33.659Z,101352.94
2023-03-21T01:17:00.968Z,101347.59
2023-03-21T01:19:40.947Z,101350.28
2023-03-21T01:22:16.138Z,101335.16
2023-03-21T01:24:53.877Z,101342.22
2023-03-21T01:27:24.113Z,101335.16
2023-03-21T01:29:51.597Z,101331.63
2023-03-21T01:32:18.852Z,101338.69
2023-03-21T01:34:46.133Z,101331.63
2023-03-21T01:37:14.499Z,101329.03
2023-03-21T01:39:47.191Z,101323.59
2023-03-21T01:42:15.017Z,101328.06
2023-03-21T01:45:01.727Z,101333.44
2023-03-21T01:47:43.688Z,101330.75
2023-03-21T01:50:27.106Z,101321.84
2023-03-21T01:53:17.064Z,101321.00
2023-03-21T01:55:44.371Z,101312.97
2023-03-21T01:58:27.694Z,101314.78
2023-03-21T02:01:06.495Z,101321.00
2023-03-21T02:03:51.229Z,101311.25
2023-03-21T02:06:57.386Z,101308.56
2023-03-21T02:09:46.611Z,101307.72
2023-03-21T02:12:18.771Z,101302.34
2023-03-21T02:14:49.601Z,101300.66
2023-03-21T02:17:47.329Z,101302.44
2023-03-21T02:20:44.059Z,101305.13
2023-03-21T02:23:30.099Z,101304.19
2023-03-21T02:26:19.164Z,101305.13
2023-03-21T02:28:53.800Z,101297.09
2023-03-21T02:32:00.857Z,101290.88
2023-03-21T02:34:46.276Z,101290.88
2023-03-21T02:37:36.760Z,101293.56
2023-03-21T02:40:15.397Z,101285.50
2023-03-21T02:42:51.643Z,101282.84
2023-03-21T02:45:30.626Z,101285.66
2023-03-21T02:48:06.903Z,101290.16
2023-03-21T02:50:48.504Z,101286.50
2023-03-21T02:53:23.672Z,101277.59
2023-03-21T02:55:53.563Z,101269.56
2023-03-21T02:58:25.542Z,101272.25
2023-03-21T03:00:57.771Z,101271.38
2023-03-21T03:03:35.930Z,101277.59
2023-03-21T03:06:17.157Z,101273.22
2023-03-21T03:09:01.791Z,101277.72
2023-03-21T03:11:44.988Z,101278.56
2023-03-21T03:14:56.406Z,101285.78
2023-03-21T03:17:41.410Z,101278.56
2023-03-21T03:20:18.022Z,101283.94
2023-03-21T03:22:57.612Z,101274.16
2023-03-21T03:25:42.852Z,101274.16
2023-03-21T03:28:17.347Z,101276.84
2023-03-21T03:31:01.127Z,101269.78
2023-03-21T03:33:41.688Z,101276.84
2023-03-21T03:36:21.444Z,101267.09
2023-03-21T03:38:57.950Z,101269.78
2023-03-21T03:41:29.353Z,101261.72
2023-03-21T03:44:02.350Z,101265.41
2023-03-21T03:46:48.146Z,101267.09
2023-03-21T03:49:21.145Z,101265.41
2023-03-21T03:52:20.409Z,101262.72
2023-03-21T03:54:58.664Z,101273.44
2023-03-21T03:57:27.660Z,101267.22
2023-03-21T03:59:56.275Z,101265.41
2023-03-21T04:02:45.283Z,101269.91
2023-03-21T04:05:21.203Z,101272.59
2023-03-21T04:07:51.147Z,101267.31
2023-03-21T04:10:22.748Z,101270.88
2023-03-21T04:12:50.481Z,101276.25
2023-03-21T04:15:26.111Z,101270.88
2023-03-21T04:17:59.487Z,101275.38
2023-03-21T04:20:36.598Z,101276.25
2023-03-21T04:23:06.154Z,101273.66
2023-03-21T04:25:36.899Z,101272.69
2023-03-21T04:28:06.691Z,101264.63
2023-03-21T04:30:58.934Z,101273.56
2023-03-21T04:33:28.748Z,101261.97
2023-03-21T04:35:59.214Z,101259.28
2023-03-21T04:38:30.905Z,101255.66
2023-03-21T04:41:03.211Z,101254.81
2023-03-21T04:43:32.179Z,101258.34
2023-03-21T04:45:59.715Z,101258.44
2023-03-21T04:48:28.026Z,101261.09
2023-03-21T04:50:56.516Z,101265.63
2023-03-21T04:53:23.924Z,101264.63
2023-03-21T04:55:54.880Z,101269.16
2023-03-21T04:58:24.130Z,101275.38
2023-03-21T05:00:53.182Z,101259.28
2023-03-21T05:03:22.017Z,101270.97
2023-03-21T05:05:49.673Z,101270.00
2023-03-21T05:08:19.351Z,101278.03
2023-03-21T05:10:46.650Z,101279.03
2023-03-21T05:13:14.073Z,101286.34
2023-03-21T05:15:41.326Z,101281.81
2023-03-21T05:18:11.588Z,101280.97
2023-03-21T05:20:54.209Z,101285.50
2023-03-21T05:23:22.764Z,101295.22
2023-03-21T05:25:51.169Z,101290.84
2023-03-21T05:28:36.957Z,101296.22
2023-03-21T05:31:05.722Z,101305.09
2023-03-21T05:33:33.381Z,101303.38
2023-03-21T05:36:00.942Z,101304.25
2023-03-21T05:38:31.631Z,101307.88
2023-03-21T05:40:59.899Z,101308.72
2023-03-21T05:43:27.519Z,101314.09
2023-03-21T05:45:55.327Z,101310.56
2023-03-21T05:48:24.230Z,101312.38
2023-03-21T05:51:08.046Z,101315.06
2023-03-21T05:53:35.842Z,101317.75
2023-03-21T05:56:03.178Z,101312.38
2023-03-21T05:58:42.968Z,101307.03
2023-03-21T06:01:10.959Z,101318.72
2023-03-21T06:03:42.014Z,101319.59
2023-03-21T06:06:27.404Z,101323.25
2023-03-21T06:09:00.907Z,101317.75
2023-03-21T06:11:32.092Z,101323.25
2023-03-21T06:14:20.907Z,101313.38
2023-03-21T06:17:06.012Z,101317.03
2023-03-21T06:19:35.168Z,101318.72
2023-03-21T06:22:13.089Z,101322.38
2023-03-21T06:24:41.861Z,101317.88
2023-03-21T06:27:09.157Z,101322.25
2023-03-21T06:29:51.628Z,101324.09
2023-03-21T06:32:19.310Z,101321.41
2023-03-21T06:34:48.636Z,101324.09
2023-03-21T06:37:16.468Z,101325.78
2023-03-21T06:39:43.949Z,101333.84
2023-03-21T06:42:12.187Z,101329.44
2023-03-21T06:44:39.848Z,101325.78
2023-03-21T06:47:12.158Z,101324.09
2023-03-21T06:49:42.921Z,101328.47
2023-03-21T06:52:12.415Z,101325.78
2023-03-21T06:54:40.441Z,101331.16
2023-03-21T06:57:13.517Z,101326.66
2023-03-21T06:59:44.089Z,101322.13
2023-03-21T07:02:16.017Z,101322.13
2023-03-21T07:04:50.902Z,101321.28
2023-03-21T07:07:26.223Z,101326.56
2023-03-21T07:09:53.472Z,101325.69
2023-03-21T07:12:21.976Z,101332.75
2023-03-21T07:15:08.324Z,101321.91
2023-03-21T07:17:37.093Z,101326.44
2023-03-21T07:20:08.050Z,101322.03
2023-03-21T07:22:36.207Z,101332.63
2023-03-21T07:25:05.648Z,101329.97
2023-03-21T07:27:40.880Z,101338.84
2023-03-21T07:30:10.217Z,101328.97
2023-03-21T07:32:38.212Z,101330.72
2023-03-21T07:35:12.540Z,101328.97
2023-03-21T07:37:40.525Z,101331.66
2023-03-21T07:40:10.732Z,101329.88
2023-03-21T07:42:40.956Z,101335.09
2023-03-21T07:45:14.692Z,101328.75
2023-03-21T07:47:42.192Z,101327.78
2023-03-21T07:50:10.024Z,101333.06
2023-03-21T07:52:37.359Z,101332.06
2023-03-21T07:55:05.328Z,101329.38
2023-03-21T07:57:32.633Z,101331.94
2023-03-21T07:59:59.936Z,101336.38
2023-03-21T08:02:27.484Z,101337.22
2023-03-21T08:04:54.832Z,101342.44
2023-03-21T08:07:22.367Z,101341.38
2023-03-21T08:09:49.732Z,101339.53
2023-03-21T08:12:17.054Z,101347.59
2023-03-21T08:14:44.537Z,101344.78
2023-03-21T08:17:11.870Z,101334.91
2023-03-21T08:19:39.208Z,101336.66
2023-03-21T08:22:06.953Z,101334.81
2023-03-21T08:24:34.427Z,101333.84
2023-03-21T08:27:02.167Z,101332.13
2023-03-21T08:29:29.579Z,101332.84
2023-03-21T08:31:58.089Z,101331.03
2023-03-21T08:34:26.682Z,101334.59
2023-03-21T08:36:54.681Z,101334.47
2023-03-21T08:39:22.513Z,101334.47
2023-03-21T08:41:49.801Z,101329.94
2023-03-21T08:44:17.184Z,101326.28
2023-03-21T08:46:44.573Z,101325.44
2023-03-21T08:49:12.635Z,101323.50
2023-03-21T08:51:41.229Z,101325.34
2023-03-21T08:54:17.310Z,101325.22
2023-03-21T08:56:44.624Z,101325.22
2023-03-21T08:59:11.946Z,101328.78
2023-03-21T09:01:39.569Z,101328.66
2023-03-21T09:04:10.765Z,101328.56
2023-03-21T09:06:41.033Z,101325.97
2023-03-21T09:09:09.427Z,101323.19
2023-03-21T09:11:36.834Z,101324.91
2023-03-21T09:14:34.769Z,101325.75
2023-03-21T09:17:02.419Z,101320.38
2023-03-21T09:19:30.444Z,101319.41
2023-03-21T09:21:57.910Z,101313.94
2023-03-21T09:24:26.445Z,101319.31
2023-03-21T09:26:53.847Z,101313.94
2023-03-21T09:29:21.537Z,101320.16
2023-03-21T09:31:49.836Z,101310.28
2023-03-21T09:34:17.197Z,101317.34
2023-03-21T09:36:44.816Z,101320.88
2023-03-21T09:39:12.800Z,101315.53
2023-03-21T09:42:12.215Z,101317.25
2023-03-21T09:44:46.135Z,101322.50
2023-03-21T09:47:19.752Z,101322.38
2023-03-21T09:49:56.878Z,101320.56
2023-03-21T09:53:05.831Z,101319.69
2023-03-21T09:55:36.656Z,101317.88
2023-03-21T09:58:14.418Z,101316.03
2023-03-21T10:00:47.505Z,101310.78
2023-03-21T10:03:26.295Z,101308.94
2023-03-21T10:05:58.779Z,101304.47
2023-03-21T10:08:36.613Z,101306.25
2023-03-21T10:11:12.712Z,101312.50
2023-03-21T10:13:46.678Z,101308.09
2023-03-21T10:16:17.629Z,101304.56
2023-03-21T10:18:46.934Z,101300.06
2023-03-21T10:21:56.394Z,101305.41
2023-03-21T10:24:26.958Z,101300.91
2023-03-21T10:26:56.066Z,101298.22
2023-03-21T10:29:37.172Z,101300.91
2023-03-21T10:32:06.386Z,101297.38
2023-03-21T10:34:40.063Z,101289.31
2023-03-21T10:37:08.108Z,101294.69
2023-03-21T10:39:40.353Z,101283.09
2023-03-21T10:42:25.355Z,101284.81
2023-03-21T10:44:55.264Z,101282.13
2023-03-21T10:47:27.462Z,101277.75
2023-03-21T10:50:11.041Z,101272.28
2023-03-21T10:52:45.565Z,101274.06
2023-03-21T10:55:25.799Z,101266.03
2023-03-21T10:57:57.703Z,101273.22
2023-03-21T11:00:29.794Z,101271.41
2023-03-21T11:02:58.346Z,101273.22
2023-03-21T11:05:33.797Z,101278.50
2023-03-21T11:08:06.976Z,101276.75
2023-03-21T11:10:51.265Z,101267.75
2023-03-21T11:13:40.814Z,101273.84
2023-03-21T11:16:22.700Z,101279.22
2023-03-21T11:18:51.815Z,101270.31
2023-03-21T11:21:21.697Z,101269.47
2023-03-21T11:23:51.785Z,101271.28
2023-03-21T11:26:32.929Z,101277.50
2023-03-21T11:29:01.179Z,101269.47
2023-03-21T11:31:40.181Z,101265.94
2023-03-21T11:34:09.343Z,101263.25
2023-03-21T11:36:41.773Z,101261.41
2023-03-21T11:39:11.814Z,101260.56
2023-03-21T11:41:41.116Z,101257.03
2023-03-21T11:44:26.532Z,101248.13
2023-03-21T11:46:54.452Z,101240.94
2023-03-21T11:49:23.266Z,101243.63
2023-03-21T11:52:08.458Z,101232.88
2023-03-21T11:54:44.308Z,101224.84
2023-03-21T11:57:44.101Z,101222.16
2023-03-21T12:00:25.970Z,101214.13
2023-03-21T12:03:19.621Z,101210.59
2023-03-21T12:05:52.965Z,101211.44
2023-03-21T12:09:01.721Z,101208.75
2023-03-21T12:11:52.616Z,101198.03
2023-03-21T12:14:27.379Z,101189.97
2023-03-21T12:17:31.782Z,101190.91
2023-03-21T12:20:14.386Z,101197.03
2023-03-21T12:22:54.624Z,101182.63
2023-03-21T12:25:29.064Z,101176.44
2023-03-21T12:28:32.443Z,101170.22
2023-03-21T12:31:09.183Z,101164.00
2023-03-21T12:33:57.579Z,101163.16
2023-03-21T12:36:31.001Z,101152.41
2023-03-21T12:39:16.982Z,101149.72
2023-03-21T12:41:52.934Z,101150.59
2023-03-21T12:44:26.357Z,101145.22
2023-03-21T12:47:13.447Z,101146.06
2023-03-21T12:50:09.976Z,101131.81
2023-03-21T12:52:41.634Z,101134.47
2023-03-21T12:55:47.422Z,101132.66
2023-03-21T12:58:24.398Z,101124.59
2023-03-21T13:00:54.308Z,101128.13
2023-03-21T13:03:45.357Z,101123.63
2023-03-21T13:06:18.357Z,101119.97
2023-03-21T13:08:58.160Z,101122.63
2023-03-21T13:11:29.189Z,101126.19
2023-03-21T13:14:05.465Z,101129.59
2023-03-21T13:16:39.119Z,101122.53
2023-03-21T13:19:09.198Z,101120.84
2023-03-21T13:21:40.623Z,101118.03
2023-03-21T13:24:19.969Z,101108.13
2023-03-21T13:26:57.876Z,101094.88
2023-03-21T13:29:44.388Z,101082.41
2023-03-21T13:32:30.861Z,101084.13
2023-03-21T13:35:21.156Z,101077.91
2023-03-21T13:37:57.190Z,101080.47
2023-03-21T13:40:57.198Z,101085.81
2023-03-21T13:43:39.397Z,101084.97
2023-03-21T13:46:12.921Z,101071.66
2023-03-21T13:49:04.446Z,101075.22
2023-03-21T13:51:31.691Z,101072.56
2023-03-21T13:54:08.952Z,101071.66
2023-03-21T13:57:01.152Z,101065.34
2023-03-21T13:59:37.773Z,101059.00
2023-03-21T14:02:31.714Z,101065.22
2023-03-21T14:05:06.406Z,101053.78
2023-03-21T14:07:42.864Z,101058.16
2023-03-21T14:10:28.647Z,101049.34
2023-03-21T14:12:57.125Z,101047.44
2023-03-21T14:15:27.728Z,101038.38
2023-03-21T14:17:59.035Z,101038.53
2023-03-21T14:20:32.488Z,101039.25
2023-03-21T14:23:00.083Z,101039.25
2023-03-21T14:25:40.932Z,101041.81
2023-03-21T14:28:18.870Z,101039.13
2023-03-21T14:30:51.601Z,101036.47
2023-03-21T14:33:27.206Z,101026.56
2023-03-21T14:36:00.887Z,101031.94
2023-03-21T14:38:35.729Z,101026.56
2023-03-21T14:41:04.190Z,101018.53
2023-03-21T14:43:34.218Z,101023.88
2023-03-21T14:46:01.613Z,101015.00
2023-03-21T14:48:32.066Z,101015.00
2023-03-21T14:51:06.014Z,101008.75
2023-03-21T14:53:39.964Z,101015.00
2023-03-21T14:56:17.054Z,101007.06
2023-03-21T14:58:46.177Z,101007.06
2023-03-21T15:01:24.981Z,101012.41
2023-03-21T15:03:52.712Z,101013.25
2023-03-21T15:06:20.297Z,101006.19
2023-03-21T15:09:02.784Z,101010.59
2023-03-21T15:11:33.811Z,101001.69
2023-03-21T15:14:04.286Z,101004.38
2023-03-21T15:16:32.365Z,100996.31
2023-03-21T15:19:01.873Z,101002.53
2023-03-21T15:21:42.252Z,100992.91
2023-03-21T15:24:17.136Z,100990.94
2023-03-21T15:26:46.527Z,100988.28
2023-03-21T15:29:16.265Z,100978.53
2023-03-21T15:31:44.774Z,100975.84
2023-03-21T15:34:21.224Z,100977.53
2023-03-21T15:36:50.919Z,100972.19
2023-03-21T15:39:21.588Z,100963.28
2023-03-21T15:42:03.859Z,100966.09
2023-03-21T15:44:32.269Z,100964.13
2023-03-21T15:46:59.949Z,100959.59
2023-03-21T15:49:40.343Z,100962.28
2023-03-21T15:52:17.043Z,100963.13
2023-03-21T15:54:59.434Z,100960.34
2023-03-21T15:57:32.802Z,100960.34
2023-03-21T16:00:28.020Z,100956.69
2023-03-21T16:03:00.909Z,100954.84
2023-03-21T16:05:31.535Z,100954.00
2023-03-21T16:08:22.959Z,100953.16
2023-03-21T16:10:50.243Z,100960.22
2023-03-21T16:13:17.824Z,100957.53
2023-03-21T16:15:46.935Z,100954.84
2023-03-21T16:18:16.190Z,100952.16
2023-03-21T16:20:46.125Z,100953.00
2023-03-21T16:23:15.002Z,100956.69
2023-03-21T16:25:44.102Z,100954.84
2023-03-21T16:28:16.530Z,100959.25
2023-03-21T16:30:44.942Z,100958.38
2023-03-21T16:33:13.355Z,100959.97
2023-03-21T16:35:41.270Z,100957.28
2023-03-21T16:38:12.473Z,100959.97
2023-03-21T16:40:43.512Z,100964.34
2023-03-21T16:43:11.453Z,100966.31
2023-03-21T16:45:38.801Z,100963.63
2023-03-21T16:48:08.753Z,100967.16
2023-03-21T16:50:41.338Z,100966.19
2023-03-21T16:53:09.552Z,100968.03
2023-03-21T16:55:37.770Z,100976.91
2023-03-21T16:58:06.241Z,100964.50
2023-03-21T17:00:33.901Z,100971.53
2023-03-21T17:03:06.582Z,100968.03
2023-03-21T17:05:34.036Z,100963.50
2023-03-21T17:08:02.563Z,100965.34
2023-03-21T17:10:31.761Z,100965.34
2023-03-21T17:12:59.772Z,100967.03
2023-03-21T17:15:27.122Z,100968.88
2023-03-21T17:17:55.835Z,100970.69
2023-03-21T17:20:32.559Z,100968.03
2023-03-21T17:23:00.286Z,100963.50
2023-03-21T17:25:27.816Z,100967.03
2023-03-21T17:27:56.328Z,100972.41
2023-03-21T17:30:33.406Z,100970.56
2023-03-21T17:33:00.742Z,100967.03
2023-03-21T17:35:29.008Z,100960.81
2023-03-21T17:37:58.617Z,100958.13
2023-03-21T17:40:28.794Z,100964.34
2023-03-21T17:42:57.290Z,100964.34
2023-03-21T17:45:25.361Z,100972.41
2023-03-21T17:47:53.045Z,100972.28
2023-03-21T17:50:27.216Z,100963.41
2023-03-21T17:52:57.358Z,100962.50
2023-03-21T17:55:24.999Z,100962.50
2023-03-21T17:57:52.302Z,100963.41
2023-03-21T18:00:24.145Z,100963.41
2023-03-21T18:02:51.868Z,100962.41
2023-03-21T18:05:21.594Z,100966.94
2023-03-21T18:10:37.404Z,100974.00
2023-03-21T18:13:04.884Z,100975.81
2023-03-21T18:15:32.935Z,100978.38
2023-03-21T18:18:00.229Z,100979.22
2023-03-21T18:20:49.840Z,100975.69
2023-03-21T18:23:16.090Z,100982.88
2023-03-21T18:25:43.489Z,100980.19
2023-03-21T18:28:12.628Z,100980.19
2023-03-21T18:31:05.426Z,100981.06
2023-03-21T18:33:28.624Z,100982.75
2023-03-21T18:36:00.005Z,100982.88
2023-03-21T18:38:28.773Z,100988.25
2023-03-21T18:40:56.669Z,100988.25
2023-03-21T18:43:59.648Z,100990.09
2023-03-21T18:46:12.726Z,100990.94
2023-03-21T18:48:40.415Z,100985.56
2023-03-21T18:51:09.592Z,100989.09
2023-03-21T18:53:37.337Z,100993.63
2023-03-21T18:56:09.946Z,100989.09
2023-03-21T18:58:37.653Z,100993.63
2023-03-21T19:01:05.456Z,100995.31
2023-03-21T19:03:36.939Z,100991.78
2023-03-21T19:06:06.504Z,100984.59
2023-03-21T19:08:38.354Z,100989.94
2023-03-21T19:11:07.081Z,100984.59
2023-03-21T19:13:34.866Z,100993.47
2023-03-21T19:16:03.054Z,100997.03
2023-03-21T19:18:53.361Z,100997.03
2023-03-21T19:21:19.572Z,100990.78
2023-03-21T19:24:22.923Z,100991.69
2023-03-21T19:26:34.677Z,100991.69
2023-03-21T19:29:02.063Z,100995.22
2023-03-21T19:31:29.463Z,101004.09
2023-03-21T19:33:57.196Z,100987.16
2023-03-21T19:36:26.362Z,101001.44
2023-03-21T19:38:53.902Z,101003.97
2023-03-21T19:41:21.226Z,101008.34
2023-03-21T19:43:54.821Z,101006.53
2023-03-21T19:46:25.017Z,101010.19
2023-03-21T19:48:56.940Z,101002.97
2023-03-21T19:51:29.869Z,101007.41
2023-03-21T19:54:04.570Z,101002.97
2023-03-21T19:56:32.110Z,101005.56
2023-03-21T19:59:02.624Z,101010.94
2023-03-21T20:01:32.458Z,101003.72
2023-03-21T20:04:00.691Z,101011.78
2023-03-21T20:06:28.300Z,101012.75
2023-03-21T20:11:43.551Z,101009.81
2023-03-21T20:14:11.047Z,101013.38
2023-03-21T20:16:38.378Z,101004.44
2023-03-21T20:19:08.960Z,101006.28
2023-03-21T20:21:47.699Z,101011.63
2023-03-21T20:24:17.643Z,101017.84
2023-03-21T20:26:48.597Z,101016.16
2023-03-21T20:30:06.943Z,101018.84
2023-03-21T20:32:04.379Z,101023.34
2023-03-21T20:34:31.761Z,101011.78
2023-03-21T20:36:59.146Z,101023.34
2023-03-21T20:39:29.455Z,101017.13
2023-03-21T20:41:59.414Z,101018.00
2023-03-21T20:44:51.961Z,101018.97
2023-03-21T20:47:15.105Z,101028.72
2023-03-21T20:49:42.391Z,101033.25
2023-03-21T20:54:57.553Z,101030.69
2023-03-21T20:57:28.722Z,101035.94
2023-03-21T20:59:57.612Z,101034.22
2023-03-21T21:02:25.272Z,101037.75
2023-03-21T21:05:23.745Z,101036.91
2023-03-21T21:07:42.753Z,101034.22
2023-03-21T21:10:14.175Z,101034.22
2023-03-21T21:12:45.133Z,101035.06
2023-03-21T21:15:16.687Z,101044.97
2023-03-21T21:20:33.800Z,101037.00
2023-03-21T21:23:01.264Z,101050.31
2023-03-21T21:25:31.905Z,101039.69
2023-03-21T21:28:01.699Z,101046.78
2023-03-21T21:30:29.794Z,101039.69
2023-03-21T21:32:59.691Z,101037.88
2023-03-21T21:35:27.134Z,101040.56
2023-03-21T21:37:54.895Z,101044.13
2023-03-21T21:40:23.364Z,101040.56
2023-03-21T21:42:50.981Z,101049.47
2023-03-21T21:45:18.979Z,101047.50
2023-03-21T21:47:46.566Z,101053.63
2023-03-21T21:50:14.255Z,101049.09
2023-03-21T21:52:43.868Z,101049.81
2023-03-21T21:55:13.098Z,101056.03
2023-03-21T21:57:41.050Z,101051.50
2023-03-21T22:00:13.707Z,101054.19
2023-03-21T22:02:41.571Z,101052.50
2023-03-21T22:05:10.518Z,101057.88
2023-03-21T22:07:38.225Z,101056.03
2023-03-21T22:10:06.643Z,101051.66
2023-03-21T22:12:33.997Z,101051.66
2023-03-21T22:15:01.558Z,101048.97
2023-03-21T22:17:29.039Z,101054.19
2023-03-21T22:20:05.753Z,101048.97
2023-03-21T22:22:34.992Z,101047.13
2023-03-21T22:25:03.709Z,101035.53
2023-03-21T22:27:31.190Z,101035.53
2023-03-21T22:30:04.727Z,101040.06
2023-03-21T22:32:32.456Z,101040.91
2023-03-21T22:35:02.316Z,101051.66
2023-03-21T22:37:35.499Z,101044.59
2023-03-21T22:40:05.504Z,101050.81
2023-03-21T22:42:32.680Z,101044.59
2023-03-21T22:44:59.942Z,101043.72
2023-03-21T22:47:27.395Z,101050.81
2023-03-21T22:49:54.615Z,101049.94
2023-03-21T22:52:23.013Z,101052.63
2023-03-21T22:54:50.419Z,101049.94
2023-03-21T22:57:20.124Z,101055.31
2023-03-21T22:59:47.385Z,101049.09
2023-03-21T23:02:15.696Z,101052.63
2023-03-21T23:04:43.066Z,101051.66
2023-03-21T23:07:10.699Z,101047.28
2023-03-21T23:09:38.038Z,101048.13
2023-03-21T23:12:05.469Z,101052.63
2023-03-21T23:14:32.767Z,101049.09
2023-03-21T23:17:00.232Z,101048.13
2023-03-21T23:19:28.784Z,101051.66
2023-03-21T23:21:56.263Z,101045.44
2023-03-21T23:24:24.495Z,101046.41
2023-03-21T23:26:51.871Z,101045.44
2023-03-21T23:29:19.228Z,101038.38
2023-03-21T23:31:46.866Z,101034.84
2023-03-21T23:34:14.367Z,101045.44
2023-03-21T23:36:42.057Z,101040.19
2023-03-21T23:39:09.920Z,101038.47
2023-03-21T23:41:37.350Z,101050.06
2023-03-21T23:44:05.230Z,101044.81
2023-03-21T23:46:32.825Z,101051.88
2023-03-21T23:49:00.417Z,101048.50
2023-03-21T23:51:27.841Z,101044.97
2023-03-21T23:53:56.617Z,101043.13
2023-03-21T23:56:26.170Z,101048.50
2023-03-21T23:58:54.125Z,101041.44
